Terminal Aerodrome Forecast
Issued by NWS Sterling, VA

Current Version | Previous Version | Graphics & Text | Print | Product List | Glossary On
Versions: 1 2 3 4 5 6 7 8 9 10 11 12 13 14 15 16 17 18 19 20 21 22 23 24 25
000
FTUS41 KLWX 202342
TAFIAD
TAF
KIAD 202342Z 2100/2206 22005KT P6SM SCT070
     FM210800 28004KT P6SM SCT070
     FM212000 30007KT P6SM BKN050
     FM220400 00000KT P6SM SCT050=

USA.gov is the U.S. government's official web portal to all federal, state and local government web resources and services.